sensor_id;sensor_type;location;lat;lon;timestamp;temperature;humidity
20315;DHT22;10315;50.958;13.080;2024-01-11T00:05:23;-6.90;99.90
20315;DHT22;10315;50.958;13.080;2024-01-11T00:15:25;-7.20;99.90
20315;DHT22;10315;50.958;13.080;2024-01-11T00:25:29;-7.60;99.90
20315;DHT22;10315;50.958;13.080;2024-01-11T00:35:30;-8.00;99.90
20315;DHT22;10315;50.958;13.080;2024-01-11T00:45:33;-8.30;99.90
20315;DHT22;10315;50.958;13.080;2024-01-11T00:55:35;-8.00;99.90
20315;DHT22;10315;50.958;13.080;2024-01-11T01:05:38;-8.30;99.90
20315;DHT22;10315;50.958;13.080;2024-01-11T01:15:39;-8.00;99.90
20315;DHT22;10315;50.958;13.080;2024-01-11T01:25:42;-8.20;99.90
20315;DHT22;10315;50.958;13.080;2024-01-11T01:35:43;-8.50;99.90
20315;DHT22;10315;50.958;13.080;2024-01-11T01:45:47;-8.50;99.90
20315;DHT22;10315;50.958;13.080;2024-01-11T01:55:49;-8.50;99.90
20315;DHT22;10315;50.958;13.080;2024-01-11T02:05:52;-9.00;99.90
20315;DHT22;10315;50.958;13.080;2024-01-11T02:15:54;-9.20;99.90
20315;DHT22;10315;50.958;13.080;2024-01-11T02:25:57;-9.40;99.90
20315;DHT22;10315;50.958;13.080;2024-01-11T02:35:58;-9.00;99.90
20315;DHT22;10315;50.958;13.080;2024-01-11T02:46:01;-9.20;99.90
20315;DHT22;10315;50.958;13.080;2024-01-11T02:56:03;-9.50;99.90
20315;DHT22;10315;50.958;13.080;2024-01-11T03:06:06;-9.80;99.90
20315;DHT22;10315;50.958;13.080;2024-01-11T03:16:07;-10.00;99.90
20315;DHT22;10315;50.958;13.080;2024-01-11T03:26:13;-9.90;99.90
20315;DHT22;10315;50.958;13.080;2024-01-11T03:36:14;-10.30;99.90
20315;DHT22;10315;50.958;13.080;2024-01-11T03:46:17;-9.60;99.90
20315;DHT22;10315;50.958;13.080;2024-01-11T03:56:19;-9.70;99.90
20315;DHT22;10315;50.958;13.080;2024-01-11T04:06:22;-9.60;99.90
20315;DHT22;10315;50.958;13.080;2024-01-11T04:16:24;-9.70;99.90
20315;DHT22;10315;50.958;13.080;2024-01-11T04:26:27;-9.80;99.90
20315;DHT22;10315;50.958;13.080;2024-01-11T04:36:28;-9.80;99.90
20315;DHT22;10315;50.958;13.080;2024-01-11T04:46:31;-9.70;99.90
20315;DHT22;10315;50.958;13.080;2024-01-11T04:56:39;-9.90;99.90
20315;DHT22;10315;50.958;13.080;2024-01-11T05:17:08;-10.20;99.90
20315;DHT22;10315;50.958;13.080;2024-01-11T05:27:10;-10.50;99.90
20315;DHT22;10315;50.958;13.080;2024-01-11T05:37:12;-10.00;99.90
20315;DHT22;10315;50.958;13.080;2024-01-11T05:47:14;-9.70;99.90
20315;DHT22;10315;50.958;13.080;2024-01-11T05:57:17;-9.70;99.90
20315;DHT22;10315;50.958;13.080;2024-01-11T06:07:18;-9.90;99.90
20315;DHT22;10315;50.958;13.080;2024-01-11T06:17:21;-10.00;99.90
20315;DHT22;10315;50.958;13.080;2024-01-11T06:27:22;-10.00;99.90
20315;DHT22;10315;50.958;13.080;2024-01-11T06:37:25;-10.00;99.90
20315;DHT22;10315;50.958;13.080;2024-01-11T06:47:29;-10.00;99.90
20315;DHT22;10315;50.958;13.080;2024-01-11T06:57:31;-10.00;99.90
20315;DHT22;10315;50.958;13.080;2024-01-11T07:07:33;-9.90;99.90
20315;DHT22;10315;50.958;13.080;2024-01-11T07:17:36;-9.40;99.90
20315;DHT22;10315;50.958;13.080;2024-01-11T07:27:37;-9.50;99.90
20315;DHT22;10315;50.958;13.080;2024-01-11T07:37:40;-9.20;99.90
20315;DHT22;10315;50.958;13.080;2024-01-11T07:47:42;-8.50;99.90
20315;DHT22;10315;50.958;13.080;2024-01-11T08:07:46;-8.20;99.90
20315;DHT22;10315;50.958;13.080;2024-01-11T08:17:48;-8.20;99.90
20315;DHT22;10315;50.958;13.080;2024-01-11T08:27:51;-8.30;99.90
20315;DHT22;10315;50.958;13.080;2024-01-11T08:37:53;-8.10;99.90
20315;DHT22;10315;50.958;13.080;2024-01-11T08:47:59;-7.90;99.90
20315;DHT22;10315;50.958;13.080;2024-01-11T08:58:00;-7.30;99.90
20315;DHT22;10315;50.958;13.080;2024-01-11T09:08:03;-6.50;99.90
20315;DHT22;10315;50.958;13.080;2024-01-11T09:18:07;-5.90;99.90
20315;DHT22;10315;50.958;13.080;2024-01-11T09:28:10;-5.70;99.90
20315;DHT22;10315;50.958;13.080;2024-01-11T09:38:11;-5.80;99.90
20315;DHT22;10315;50.958;13.080;2024-01-11T09:48:14;-5.40;99.90
20315;DHT22;10315;50.958;13.080;2024-01-11T09:58:16;-4.60;99.90
20315;DHT22;10315;50.958;13.080;2024-01-11T10:08:21;-3.90;99.90
20315;DHT22;10315;50.958;13.080;2024-01-11T10:18:22;-3.40;99.90
20315;DHT22;10315;50.958;13.080;2024-01-11T10:28:26;-4.00;99.90
20315;DHT22;10315;50.958;13.080;2024-01-11T10:38:29;-3.40;99.90
20315;DHT22;10315;50.958;13.080;2024-01-11T10:48:33;-3.20;99.90
20315;DHT22;10315;50.958;13.080;2024-01-11T10:58:35;-3.60;99.90
20315;DHT22;10315;50.958;13.080;2024-01-11T11:08:38;-2.40;99.90
20315;DHT22;10315;50.958;13.080;2024-01-11T11:18:40;-2.80;99.90
20315;DHT22;10315;50.958;13.080;2024-01-11T11:28:43;-1.80;99.90
20315;DHT22;10315;50.958;13.080;2024-01-11T11:38:45;-0.40;99.90
20315;DHT22;10315;50.958;13.080;2024-01-11T11:48:53;0.60;99.90
20315;DHT22;10315;50.958;13.080;2024-01-11T11:58:55;2.20;99.90
20315;DHT22;10315;50.958;13.080;2024-01-11T12:08:58;3.20;99.90
20315;DHT22;10315;50.958;13.080;2024-01-11T12:19:00;2.50;99.90
20315;DHT22;10315;50.958;13.080;2024-01-11T12:29:02;1.30;99.90
20315;DHT22;10315;50.958;13.080;2024-01-11T12:39:04;0.30;99.90
20315;DHT22;10315;50.958;13.080;2024-01-11T12:49:09;0.40;99.90
20315;DHT22;10315;50.958;13.080;2024-01-11T12:59:11;0.00;99.90
20315;DHT22;10315;50.958;13.080;2024-01-11T13:09:14;-0.50;99.90
20315;DHT22;10315;50.958;13.080;2024-01-11T13:19:16;-0.50;99.90
20315;DHT22;10315;50.958;13.080;2024-01-11T13:39:22;-1.00;99.90
20315;DHT22;10315;50.958;13.080;2024-01-11T13:49:24;-1.30;99.90
20315;DHT22;10315;50.958;13.080;2024-01-11T13:59:27;-1.50;99.90
20315;DHT22;10315;50.958;13.080;2024-01-11T14:09:28;-1.30;99.90
20315;DHT22;10315;50.958;13.080;2024-01-11T14:19:31;-0.40;99.90
20315;DHT22;10315;50.958;13.080;2024-01-11T14:29:33;-1.50;99.90
20315;DHT22;10315;50.958;13.080;2024-01-11T14:39:35;-1.50;99.90
20315;DHT22;10315;50.958;13.080;2024-01-11T14:49:37;-1.70;99.90
20315;DHT22;10315;50.958;13.080;2024-01-11T14:59:40;-2.00;99.90
20315;DHT22;10315;50.958;13.080;2024-01-11T15:09:41;-2.50;99.90
20315;DHT22;10315;50.958;13.080;2024-01-11T15:19:44;-2.80;99.90
20315;DHT22;10315;50.958;13.080;2024-01-11T15:29:46;-3.30;99.90
20315;DHT22;10315;50.958;13.080;2024-01-11T15:39:49;-3.70;99.90
20315;DHT22;10315;50.958;13.080;2024-01-11T15:49:50;-3.60;99.90
20315;DHT22;10315;50.958;13.080;2024-01-11T15:59:53;-3.80;99.90
20315;DHT22;10315;50.958;13.080;2024-01-11T16:09:54;-4.30;99.90
20315;DHT22;10315;50.958;13.080;2024-01-11T16:19:57;-4.40;99.90
20315;DHT22;10315;50.958;13.080;2024-01-11T16:29:58;-4.30;99.90
20315;DHT22;10315;50.958;13.080;2024-01-11T16:40:01;-4.60;99.90
20315;DHT22;10315;50.958;13.080;2024-01-11T16:50:03;-4.70;99.90
20315;DHT22;10315;50.958;13.080;2024-01-11T17:00:07;-4.90;99.90
20315;DHT22;10315;50.958;13.080;2024-01-11T17:10:09;-4.90;99.90
20315;DHT22;10315;50.958;13.080;2024-01-11T17:20:12;-5.10;99.90
20315;DHT22;10315;50.958;13.080;2024-01-11T17:30:15;-5.30;99.90
20315;DHT22;10315;50.958;13.080;2024-01-11T17:40:18;-5.30;99.90
20315;DHT22;10315;50.958;13.080;2024-01-11T17:50:20;-4.80;99.90
20315;DHT22;10315;50.958;13.080;2024-01-11T18:00:23;-4.50;99.90
20315;DHT22;10315;50.958;13.080;2024-01-11T18:10:24;-4.30;99.90
20315;DHT22;10315;50.958;13.080;2024-01-11T18:20:27;-4.50;99.90
20315;DHT22;10315;50.958;13.080;2024-01-11T18:30:29;-4.40;99.90
20315;DHT22;10315;50.958;13.080;2024-01-11T18:40:31;-4.40;99.90
20315;DHT22;10315;50.958;13.080;2024-01-11T18:50:33;-4.30;99.90
20315;DHT22;10315;50.958;13.080;2024-01-11T19:00:36;-4.20;99.90
20315;DHT22;10315;50.958;13.080;2024-01-11T19:10:37;-4.20;99.90
20315;DHT22;10315;50.958;13.080;2024-01-11T19:20:40;-4.20;99.90
20315;DHT22;10315;50.958;13.080;2024-01-11T19:30:41;-4.20;99.90
20315;DHT22;10315;50.958;13.080;2024-01-11T19:40:44;-4.10;99.90
20315;DHT22;10315;50.958;13.080;2024-01-11T19:50:46;-4.20;99.90
20315;DHT22;10315;50.958;13.080;2024-01-11T20:00:49;-4.10;99.90
20315;DHT22;10315;50.958;13.080;2024-01-11T20:10:50;-3.90;99.90
20315;DHT22;10315;50.958;13.080;2024-01-11T20:20:54;-3.90;99.90
20315;DHT22;10315;50.958;13.080;2024-01-11T20:30:56;-4.00;99.90
20315;DHT22;10315;50.958;13.080;2024-01-11T20:40:59;-4.00;99.90
20315;DHT22;10315;50.958;13.080;2024-01-11T20:51:01;-3.90;99.90
20315;DHT22;10315;50.958;13.080;2024-01-11T21:01:04;-3.90;99.90
20315;DHT22;10315;50.958;13.080;2024-01-11T21:11:06;-3.80;99.90
20315;DHT22;10315;50.958;13.080;2024-01-11T21:21:09;-3.70;99.90
20315;DHT22;10315;50.958;13.080;2024-01-11T21:31:11;-3.60;99.90
20315;DHT22;10315;50.958;13.080;2024-01-11T21:41:13;-3.60;99.90
20315;DHT22;10315;50.958;13.080;2024-01-11T21:51:15;-3.50;99.90
20315;DHT22;10315;50.958;13.080;2024-01-11T22:01:18;-3.50;99.90
20315;DHT22;10315;50.958;13.080;2024-01-11T22:11:19;-3.50;99.90
20315;DHT22;10315;50.958;13.080;2024-01-11T22:21:22;-3.40;99.90
20315;DHT22;10315;50.958;13.080;2024-01-11T22:31:24;-3.40;99.90
20315;DHT22;10315;50.958;13.080;2024-01-11T22:41:38;-3.30;99.90
20315;DHT22;10315;50.958;13.080;2024-01-11T22:51:39;-3.30;99.90
20315;DHT22;10315;50.958;13.080;2024-01-11T23:01:42;-3.40;99.90
20315;DHT22;10315;50.958;13.080;2024-01-11T23:11:44;-3.30;99.90
20315;DHT22;10315;50.958;13.080;2024-01-11T23:21:47;-3.20;99.90
20315;DHT22;10315;50.958;13.080;2024-01-11T23:31:48;-3.20;99.90
20315;DHT22;10315;50.958;13.080;2024-01-11T23:41:52;-3.10;99.90
20315;DHT22;10315;50.958;13.080;2024-01-11T23:51:54;-3.00;99.90
